sensor_id;sensor_type;location;lat;lon;timestamp;pressure;altitude;pressure_sealevel;temperature;humidity
42847;BME280;28495;49.916;14.536;2023-04-29T00:03:44;96441.00;;;10.91;67.24
42847;BME280;28495;49.916;14.536;2023-04-29T00:09:05;96431.09;;;10.94;67.28
42847;BME280;28495;49.916;14.536;2023-04-29T00:14:25;96433.72;;;10.94;67.30
42847;BME280;28495;49.916;14.536;2023-04-29T00:19:46;96435.56;;;11.02;67.37
42847;BME280;28495;49.916;14.536;2023-04-29T00:25:07;96434.59;;;11.03;67.02
42847;BME280;28495;49.916;14.536;2023-04-29T00:30:30;96444.81;;;10.96;67.14
42847;BME280;28495;49.916;14.536;2023-04-29T00:35:51;96440.03;;;10.92;67.30
42847;BME280;28495;49.916;14.536;2023-04-29T00:41:12;96443.47;;;10.92;67.54
42847;BME280;28495;49.916;14.536;2023-04-29T00:46:33;96438.91;;;10.94;67.14
42847;BME280;28495;49.916;14.536;2023-04-29T00:51:55;96443.69;;;10.99;67.62
42847;BME280;28495;49.916;14.536;2023-04-29T00:57:18;96441.53;;;10.94;67.31
42847;BME280;28495;49.916;14.536;2023-04-29T01:02:40;96439.34;;;10.90;67.62
42847;BME280;28495;49.916;14.536;2023-04-29T01:19:02;96431.53;;;10.90;67.80
42847;BME280;28495;49.916;14.536;2023-04-29T01:24:27;96434.38;;;10.96;68.07
42847;BME280;28495;49.916;14.536;2023-04-29T01:35:32;96435.91;;;11.07;68.26
42847;BME280;28495;49.916;14.536;2023-04-29T01:41:14;96430.69;;;11.07;68.05
42847;BME280;28495;49.916;14.536;2023-04-29T01:46:40;96430.91;;;11.14;68.22
42847;BME280;28495;49.916;14.536;2023-04-29T01:52:02;96431.78;;;11.23;67.93
42847;BME280;28495;49.916;14.536;2023-04-29T01:57:24;96431.28;;;11.19;67.90
42847;BME280;28495;49.916;14.536;2023-04-29T02:02:51;96436.69;;;11.26;67.69
42847;BME280;28495;49.916;14.536;2023-04-29T02:08:21;96436.69;;;11.26;67.71
42847;BME280;28495;49.916;14.536;2023-04-29T02:13:42;96441.91;;;11.26;67.85
42847;BME280;28495;49.916;14.536;2023-04-29T02:19:05;96433.88;;;11.19;67.74
42847;BME280;28495;49.916;14.536;2023-04-29T02:24:26;96433.88;;;11.19;68.08
42847;BME280;28495;49.916;14.536;2023-04-29T02:29:47;96436.78;;;11.16;68.01
42847;BME280;28495;49.916;14.536;2023-04-29T02:35:08;96432.91;;;11.20;68.08
42847;BME280;28495;49.916;14.536;2023-04-29T02:40:28;96434.63;;;11.11;67.97
42847;BME280;28495;49.916;14.536;2023-04-29T02:45:51;96423.91;;;11.15;67.81
42847;BME280;28495;49.916;14.536;2023-04-29T02:51:12;96417.22;;;10.94;67.63
42847;BME280;28495;49.916;14.536;2023-04-29T02:56:33;96413.81;;;10.93;68.32
42847;BME280;28495;49.916;14.536;2023-04-29T03:01:54;96414.47;;;10.95;68.12
42847;BME280;28495;49.916;14.536;2023-04-29T03:07:15;96420.88;;;11.01;68.51
42847;BME280;28495;49.916;14.536;2023-04-29T03:12:36;96420.66;;;10.94;68.42
42847;BME280;28495;49.916;14.536;2023-04-29T03:17:59;96413.88;;;10.83;68.33
42847;BME280;28495;49.916;14.536;2023-04-29T03:23:21;96416.88;;;10.89;68.70
42847;BME280;28495;49.916;14.536;2023-04-29T03:28:42;96409.81;;;11.07;69.42
42847;BME280;28495;49.916;14.536;2023-04-29T03:34:03;96412.25;;;11.27;69.11
42847;BME280;28495;49.916;14.536;2023-04-29T03:39:27;96409.38;;;11.38;69.00
42847;BME280;28495;49.916;14.536;2023-04-29T03:44:52;96410.03;;;11.40;68.78
42847;BME280;28495;49.916;14.536;2023-04-29T03:50:12;96401.91;;;11.43;68.92
42847;BME280;28495;49.916;14.536;2023-04-29T03:55:33;96406.28;;;11.43;68.77
42847;BME280;28495;49.916;14.536;2023-04-29T04:00:55;96417.28;;;11.55;68.87
42847;BME280;28495;49.916;14.536;2023-04-29T04:06:23;96410.78;;;11.59;68.73
42847;BME280;28495;49.916;14.536;2023-04-29T04:11:45;96410.59;;;11.52;68.73
42847;BME280;28495;49.916;14.536;2023-04-29T04:17:07;96413.09;;;11.62;69.15
42847;BME280;28495;49.916;14.536;2023-04-29T04:22:29;96420.16;;;11.70;68.85
42847;BME280;28495;49.916;14.536;2023-04-29T04:28:05;96417.34;;;11.63;68.88
42847;BME280;28495;49.916;14.536;2023-04-29T04:33:47;96425.78;;;11.57;68.75
42847;BME280;28495;49.916;14.536;2023-04-29T04:39:08;96423.28;;;11.47;68.75
42847;BME280;28495;49.916;14.536;2023-04-29T04:44:29;96414.34;;;11.23;68.61
42847;BME280;28495;49.916;14.536;2023-04-29T04:49:57;96425.28;;;11.27;69.06
42847;BME280;28495;49.916;14.536;2023-04-29T04:55:19;96419.00;;;11.38;69.20
42847;BME280;28495;49.916;14.536;2023-04-29T05:00:44;96417.63;;;11.25;68.97
42847;BME280;28495;49.916;14.536;2023-04-29T05:06:05;96413.38;;;11.24;69.53
42847;BME280;28495;49.916;14.536;2023-04-29T05:11:26;96420.75;;;11.29;69.56
42847;BME280;28495;49.916;14.536;2023-04-29T05:17:04;96418.03;;;11.39;69.69
42847;BME280;28495;49.916;14.536;2023-04-29T05:22:25;96421.25;;;11.33;69.41
42847;BME280;28495;49.916;14.536;2023-04-29T05:27:46;96424.06;;;11.39;69.88
42847;BME280;28495;49.916;14.536;2023-04-29T05:33:10;96426.75;;;11.56;69.96
42847;BME280;28495;49.916;14.536;2023-04-29T05:38:32;96428.41;;;11.57;69.95
42847;BME280;28495;49.916;14.536;2023-04-29T05:43:56;96434.34;;;11.67;70.00
42847;BME280;28495;49.916;14.536;2023-04-29T05:49:17;96430.41;;;11.63;69.94
42847;BME280;28495;49.916;14.536;2023-04-29T05:54:37;96440.38;;;11.68;70.04
42847;BME280;28495;49.916;14.536;2023-04-29T05:59:59;96438.44;;;11.70;70.14
42847;BME280;28495;49.916;14.536;2023-04-29T06:05:20;96435.31;;;11.66;70.00
42847;BME280;28495;49.916;14.536;2023-04-29T06:10:59;96443.34;;;11.73;70.46
42847;BME280;28495;49.916;14.536;2023-04-29T06:16:22;96452.00;;;12.00;70.40
42847;BME280;28495;49.916;14.536;2023-04-29T06:21:43;96442.34;;;12.00;70.26
42847;BME280;28495;49.916;14.536;2023-04-29T06:27:04;96450.44;;;12.24;70.44
42847;BME280;28495;49.916;14.536;2023-04-29T06:32:25;96445.44;;;12.47;70.26
42847;BME280;28495;49.916;14.536;2023-04-29T06:37:46;96454.44;;;12.53;70.33
42847;BME280;28495;49.916;14.536;2023-04-29T06:43:26;96443.19;;;12.52;70.07
42847;BME280;28495;49.916;14.536;2023-04-29T06:49:13;96438.59;;;12.71;70.40
42847;BME280;28495;49.916;14.536;2023-04-29T06:54:34;96442.56;;;12.67;70.09
42847;BME280;28495;49.916;14.536;2023-04-29T06:59:55;96444.19;;;12.76;70.46
42847;BME280;28495;49.916;14.536;2023-04-29T07:05:17;96446.97;;;13.32;70.70
42847;BME280;28495;49.916;14.536;2023-04-29T07:10:40;96441.34;;;13.77;70.15
42847;BME280;28495;49.916;14.536;2023-04-29T07:16:01;96434.41;;;14.32;69.97
42847;BME280;28495;49.916;14.536;2023-04-29T07:21:21;96431.38;;;14.52;69.23
42847;BME280;28495;49.916;14.536;2023-04-29T07:26:43;96432.06;;;14.37;68.89
42847;BME280;28495;49.916;14.536;2023-04-29T07:32:08;96432.22;;;14.12;68.59
42847;BME280;28495;49.916;14.536;2023-04-29T07:37:30;96436.97;;;14.40;69.01
42847;BME280;28495;49.916;14.536;2023-04-29T07:42:51;96440.88;;;14.76;68.42
42847;BME280;28495;49.916;14.536;2023-04-29T07:48:12;96443.81;;;15.04;68.37
42847;BME280;28495;49.916;14.536;2023-04-29T07:53:33;96442.78;;;15.29;68.08
42847;BME280;28495;49.916;14.536;2023-04-29T07:58:54;96443.63;;;15.44;67.46
42847;BME280;28495;49.916;14.536;2023-04-29T08:04:15;96442.50;;;15.23;67.63
42847;BME280;28495;49.916;14.536;2023-04-29T08:09:41;96444.22;;;15.16;67.51
42847;BME280;28495;49.916;14.536;2023-04-29T08:15:04;96436.25;;;15.24;66.72
42847;BME280;28495;49.916;14.536;2023-04-29T08:20:27;96451.94;;;14.94;66.97
42847;BME280;28495;49.916;14.536;2023-04-29T08:25:48;96461.66;;;14.86;66.89
42847;BME280;28495;49.916;14.536;2023-04-29T08:31:20;96456.78;;;14.51;66.20
42847;BME280;28495;49.916;14.536;2023-04-29T08:36:42;96463.41;;;14.30;66.77
42847;BME280;28495;49.916;14.536;2023-04-29T08:42:12;96463.34;;;14.47;67.29
42847;BME280;28495;49.916;14.536;2023-04-29T08:47:34;96456.91;;;14.89;67.09
42847;BME280;28495;49.916;14.536;2023-04-29T08:52:56;96462.75;;;15.15;66.51
42847;BME280;28495;49.916;14.536;2023-04-29T08:58:17;96452.06;;;15.39;66.01
42847;BME280;28495;49.916;14.536;2023-04-29T09:09:23;96460.44;;;15.73;65.20
42847;BME280;28495;49.916;14.536;2023-04-29T09:14:44;96455.44;;;15.63;64.76
42847;BME280;28495;49.916;14.536;2023-04-29T09:20:28;96466.84;;;15.41;64.73
42847;BME280;28495;49.916;14.536;2023-04-29T09:25:56;96465.25;;;15.31;65.03
42847;BME280;28495;49.916;14.536;2023-04-29T09:31:26;96467.25;;;15.29;64.98
42847;BME280;28495;49.916;14.536;2023-04-29T09:36:51;96487.53;;;14.97;64.96
42847;BME280;28495;49.916;14.536;2023-04-29T09:42:16;96484.06;;;14.42;66.01
42847;BME280;28495;49.916;14.536;2023-04-29T09:47:37;96491.28;;;14.31;66.96
42847;BME280;28495;49.916;14.536;2023-04-29T09:52:58;96506.06;;;14.64;67.74
42847;BME280;28495;49.916;14.536;2023-04-29T09:58:31;96506.84;;;15.04;68.13
42847;BME280;28495;49.916;14.536;2023-04-29T10:03:59;96504.25;;;15.43;67.62
42847;BME280;28495;49.916;14.536;2023-04-29T10:09:22;96494.75;;;15.42;67.14
42847;BME280;28495;49.916;14.536;2023-04-29T10:14:54;96487.72;;;15.57;67.14
42847;BME280;28495;49.916;14.536;2023-04-29T10:20:24;96501.25;;;15.46;66.50
42847;BME280;28495;49.916;14.536;2023-04-29T10:25:45;96533.53;;;15.16;66.63
42847;BME280;28495;49.916;14.536;2023-04-29T10:31:08;96544.63;;;14.72;66.57
42847;BME280;28495;49.916;14.536;2023-04-29T10:36:30;96536.94;;;14.14;66.67
42847;BME280;28495;49.916;14.536;2023-04-29T10:41:52;96536.19;;;13.89;67.24
42847;BME280;28495;49.916;14.536;2023-04-29T10:47:19;96532.06;;;13.86;67.39
42847;BME280;28495;49.916;14.536;2023-04-29T10:52:51;96528.97;;;13.91;67.62
42847;BME280;28495;49.916;14.536;2023-04-29T10:58:41;96520.88;;;14.09;67.91
42847;BME280;28495;49.916;14.536;2023-04-29T11:04:03;96513.13;;;14.24;67.97
42847;BME280;28495;49.916;14.536;2023-04-29T11:09:26;96524.38;;;14.41;67.87
42847;BME280;28495;49.916;14.536;2023-04-29T11:14:50;96528.84;;;14.63;67.94
42847;BME280;28495;49.916;14.536;2023-04-29T11:20:14;96528.53;;;14.67;67.48
42847;BME280;28495;49.916;14.536;2023-04-29T11:25:35;96533.63;;;14.68;67.60
42847;BME280;28495;49.916;14.536;2023-04-29T11:30:59;96540.09;;;14.49;67.51
42847;BME280;28495;49.916;14.536;2023-04-29T11:36:19;96557.03;;;14.30;67.79
42847;BME280;28495;49.916;14.536;2023-04-29T11:41:41;96563.13;;;14.22;67.81
42847;BME280;28495;49.916;14.536;2023-04-29T11:47:05;96561.53;;;14.05;67.90
42847;BME280;28495;49.916;14.536;2023-04-29T11:52:27;96559.59;;;13.90;67.91
42847;BME280;28495;49.916;14.536;2023-04-29T11:57:48;96563.06;;;13.91;68.51
42847;BME280;28495;49.916;14.536;2023-04-29T12:03:14;96562.84;;;14.09;68.85
42847;BME280;28495;49.916;14.536;2023-04-29T12:08:36;96561.31;;;14.23;68.56
42847;BME280;28495;49.916;14.536;2023-04-29T12:13:56;96572.28;;;14.35;68.76
42847;BME280;28495;49.916;14.536;2023-04-29T12:19:18;96559.09;;;14.51;68.84
42847;BME280;28495;49.916;14.536;2023-04-29T12:24:40;96557.41;;;14.67;68.34
42847;BME280;28495;49.916;14.536;2023-04-29T12:30:01;96553.56;;;14.86;68.17
42847;BME280;28495;49.916;14.536;2023-04-29T12:35:26;96559.69;;;15.01;68.18
42847;BME280;28495;49.916;14.536;2023-04-29T12:40:47;96560.34;;;15.03;67.47
42847;BME280;28495;49.916;14.536;2023-04-29T12:46:09;96570.47;;;14.83;67.25
42847;BME280;28495;49.916;14.536;2023-04-29T12:51:33;96577.91;;;14.63;67.35
42847;BME280;28495;49.916;14.536;2023-04-29T12:56:54;96598.19;;;14.29;67.67
42847;BME280;28495;49.916;14.536;2023-04-29T13:02:15;96607.75;;;13.89;67.63
42847;BME280;28495;49.916;14.536;2023-04-29T13:07:37;96596.63;;;13.79;68.30
42847;BME280;28495;49.916;14.536;2023-04-29T13:12:58;96582.72;;;13.86;68.83
42847;BME280;28495;49.916;14.536;2023-04-29T13:18:19;96584.03;;;13.91;69.14
42847;BME280;28495;49.916;14.536;2023-04-29T13:23:40;96590.06;;;13.91;69.43
42847;BME280;28495;49.916;14.536;2023-04-29T13:29:01;96599.25;;;13.87;69.03
42847;BME280;28495;49.916;14.536;2023-04-29T13:34:22;96601.72;;;13.72;69.55
42847;BME280;28495;49.916;14.536;2023-04-29T13:39:43;96601.88;;;13.79;69.59
42847;BME280;28495;49.916;14.536;2023-04-29T13:45:07;96616.13;;;13.76;69.67
42847;BME280;28495;49.916;14.536;2023-04-29T13:50:28;96614.66;;;13.65;69.30
42847;BME280;28495;49.916;14.536;2023-04-29T13:56:09;96615.97;;;13.53;69.44
42847;BME280;28495;49.916;14.536;2023-04-29T14:01:33;96612.19;;;13.55;69.38
42847;BME280;28495;49.916;14.536;2023-04-29T14:06:57;96609.88;;;13.52;69.24
42847;BME280;28495;49.916;14.536;2023-04-29T14:12:17;96618.06;;;13.49;69.18
42847;BME280;28495;49.916;14.536;2023-04-29T14:17:38;96618.56;;;13.61;69.64
42847;BME280;28495;49.916;14.536;2023-04-29T14:22:59;96615.81;;;13.71;69.57
42847;BME280;28495;49.916;14.536;2023-04-29T14:28:20;96615.66;;;13.81;69.56
42847;BME280;28495;49.916;14.536;2023-04-29T14:33:41;96628.25;;;13.69;69.35
42847;BME280;28495;49.916;14.536;2023-04-29T14:39:02;96635.28;;;13.85;70.12
42847;BME280;28495;49.916;14.536;2023-04-29T14:44:23;96634.66;;;13.83;69.93
42847;BME280;28495;49.916;14.536;2023-04-29T14:49:44;96643.63;;;13.80;69.81
42847;BME280;28495;49.916;14.536;2023-04-29T14:55:05;96644.28;;;13.82;69.65
42847;BME280;28495;49.916;14.536;2023-04-29T15:00:27;96644.47;;;13.89;69.93
42847;BME280;28495;49.916;14.536;2023-04-29T15:05:48;96644.13;;;13.92;69.59
42847;BME280;28495;49.916;14.536;2023-04-29T15:11:10;96659.88;;;13.92;69.05
42847;BME280;28495;49.916;14.536;2023-04-29T15:16:31;96658.25;;;13.83;69.00
42847;BME280;28495;49.916;14.536;2023-04-29T15:21:52;96669.84;;;13.80;68.63
42847;BME280;28495;49.916;14.536;2023-04-29T15:27:12;96681.28;;;13.63;67.87
42847;BME280;28495;49.916;14.536;2023-04-29T15:32:35;96674.50;;;13.35;67.44
42847;BME280;28495;49.916;14.536;2023-04-29T15:37:56;96681.84;;;13.23;67.50
42847;BME280;28495;49.916;14.536;2023-04-29T15:43:18;96689.53;;;13.25;67.76
42847;BME280;28495;49.916;14.536;2023-04-29T15:48:41;96691.16;;;13.18;67.82
42847;BME280;28495;49.916;14.536;2023-04-29T15:54:02;96704.44;;;13.24;67.75
42847;BME280;28495;49.916;14.536;2023-04-29T15:59:24;96712.09;;;13.18;67.44
42847;BME280;28495;49.916;14.536;2023-04-29T16:04:45;96709.59;;;13.08;67.17
42847;BME280;28495;49.916;14.536;2023-04-29T16:10:06;96722.03;;;13.06;67.21
42847;BME280;28495;49.916;14.536;2023-04-29T16:15:28;96723.16;;;13.03;67.04
42847;BME280;28495;49.916;14.536;2023-04-29T16:20:49;96733.44;;;12.96;66.85
42847;BME280;28495;49.916;14.536;2023-04-29T16:26:11;96739.94;;;12.84;66.71
42847;BME280;28495;49.916;14.536;2023-04-29T16:31:32;96752.66;;;12.79;66.62
42847;BME280;28495;49.916;14.536;2023-04-29T16:36:53;96766.50;;;12.71;66.41
42847;BME280;28495;49.916;14.536;2023-04-29T16:42:14;96766.44;;;12.63;66.50
42847;BME280;28495;49.916;14.536;2023-04-29T16:47:35;96778.88;;;12.61;66.33
42847;BME280;28495;49.916;14.536;2023-04-29T16:52:57;96781.47;;;12.61;66.25
42847;BME280;28495;49.916;14.536;2023-04-29T16:58:17;96794.78;;;12.68;66.18
42847;BME280;28495;49.916;14.536;2023-04-29T17:03:38;96798.28;;;12.58;65.75
42847;BME280;28495;49.916;14.536;2023-04-29T17:09:00;96804.81;;;12.54;65.80
42847;BME280;28495;49.916;14.536;2023-04-29T17:14:21;96813.25;;;12.48;65.75
42847;BME280;28495;49.916;14.536;2023-04-29T17:19:42;96817.97;;;12.44;65.53
42847;BME280;28495;49.916;14.536;2023-04-29T17:25:03;96826.56;;;12.37;65.41
42847;BME280;28495;49.916;14.536;2023-04-29T17:30:25;96838.88;;;12.26;65.38
42847;BME280;28495;49.916;14.536;2023-04-29T17:35:46;96847.91;;;12.14;65.17
42847;BME280;28495;49.916;14.536;2023-04-29T17:41:06;96858.66;;;12.11;65.50
42847;BME280;28495;49.916;14.536;2023-04-29T17:46:27;96873.47;;;11.92;65.14
42847;BME280;28495;49.916;14.536;2023-04-29T17:51:48;96871.25;;;11.69;65.31
42847;BME280;28495;49.916;14.536;2023-04-29T17:57:09;96889.06;;;11.46;65.53
42847;BME280;28495;49.916;14.536;2023-04-29T18:02:30;96899.41;;;11.38;65.58
42847;BME280;28495;49.916;14.536;2023-04-29T18:07:51;96902.19;;;11.26;65.78
42847;BME280;28495;49.916;14.536;2023-04-29T18:13:11;96923.91;;;11.17;65.76
42847;BME280;28495;49.916;14.536;2023-04-29T18:18:32;96915.97;;;11.09;65.87
42847;BME280;28495;49.916;14.536;2023-04-29T18:23:54;96923.38;;;11.04;65.79
42847;BME280;28495;49.916;14.536;2023-04-29T18:29:15;96938.34;;;11.02;65.91
42847;BME280;28495;49.916;14.536;2023-04-29T18:34:36;96941.50;;;11.05;66.10
42847;BME280;28495;49.916;14.536;2023-04-29T18:39:57;96950.03;;;11.07;66.08
42847;BME280;28495;49.916;14.536;2023-04-29T18:45:17;96963.63;;;11.11;66.15
42847;BME280;28495;49.916;14.536;2023-04-29T18:50:38;96964.19;;;11.15;66.02
42847;BME280;28495;49.916;14.536;2023-04-29T18:56:00;96967.59;;;11.05;66.09
42847;BME280;28495;49.916;14.536;2023-04-29T19:01:20;96967.91;;;11.02;66.15
42847;BME280;28495;49.916;14.536;2023-04-29T19:06:41;96981.59;;;11.04;65.96
42847;BME280;28495;49.916;14.536;2023-04-29T19:12:03;96990.69;;;11.00;66.01
42847;BME280;28495;49.916;14.536;2023-04-29T19:17:24;96985.75;;;10.87;65.85
42847;BME280;28495;49.916;14.536;2023-04-29T19:22:45;96992.59;;;10.78;66.04
42847;BME280;28495;49.916;14.536;2023-04-29T19:28:06;96993.56;;;10.77;66.15
42847;BME280;28495;49.916;14.536;2023-04-29T19:33:27;97002.91;;;10.70;65.79
42847;BME280;28495;49.916;14.536;2023-04-29T19:38:48;97001.22;;;10.59;66.21
42847;BME280;28495;49.916;14.536;2023-04-29T19:44:09;97011.91;;;10.56;65.91
42847;BME280;28495;49.916;14.536;2023-04-29T19:49:30;97011.09;;;10.56;66.05
42847;BME280;28495;49.916;14.536;2023-04-29T19:54:51;97006.84;;;10.55;66.30
42847;BME280;28495;49.916;14.536;2023-04-29T20:00:12;97006.00;;;10.54;66.47
42847;BME280;28495;49.916;14.536;2023-04-29T20:05:34;97009.03;;;10.59;66.48
42847;BME280;28495;49.916;14.536;2023-04-29T20:10:54;97005.19;;;10.54;66.90
42847;BME280;28495;49.916;14.536;2023-04-29T20:16:15;97008.50;;;10.56;66.88
42847;BME280;28495;49.916;14.536;2023-04-29T20:21:36;97005.75;;;10.57;66.92
42847;BME280;28495;49.916;14.536;2023-04-29T20:26:59;97012.06;;;10.55;66.68
42847;BME280;28495;49.916;14.536;2023-04-29T20:32:21;97016.44;;;10.54;66.86
42847;BME280;28495;49.916;14.536;2023-04-29T20:37:41;97010.94;;;10.47;67.08
42847;BME280;28495;49.916;14.536;2023-04-29T20:43:02;97018.34;;;10.42;67.38
42847;BME280;28495;49.916;14.536;2023-04-29T20:48:24;97019.88;;;10.55;67.30
42847;BME280;28495;49.916;14.536;2023-04-29T20:53:45;97018.22;;;10.54;67.38
42847;BME280;28495;49.916;14.536;2023-04-29T20:59:06;97024.25;;;10.54;67.37
42847;BME280;28495;49.916;14.536;2023-04-29T21:04:27;97030.72;;;10.60;67.49
42847;BME280;28495;49.916;14.536;2023-04-29T21:09:47;97028.25;;;10.58;67.41
42847;BME280;28495;49.916;14.536;2023-04-29T21:15:09;97034.28;;;10.49;67.62
42847;BME280;28495;49.916;14.536;2023-04-29T21:20:30;97042.63;;;10.43;67.64
42847;BME280;28495;49.916;14.536;2023-04-29T21:25:51;97053.09;;;10.52;67.48
42847;BME280;28495;49.916;14.536;2023-04-29T21:31:12;97044.72;;;10.49;67.73
42847;BME280;28495;49.916;14.536;2023-04-29T21:36:35;97047.88;;;10.52;67.60
42847;BME280;28495;49.916;14.536;2023-04-29T21:41:57;97045.56;;;10.59;67.76
42847;BME280;28495;49.916;14.536;2023-04-29T21:47:19;97047.44;;;10.47;67.46
42847;BME280;28495;49.916;14.536;2023-04-29T21:52:40;97056.75;;;10.40;67.64
42847;BME280;28495;49.916;14.536;2023-04-29T21:58:01;97057.56;;;10.41;67.74
42847;BME280;28495;49.916;14.536;2023-04-29T22:03:22;97051.91;;;10.35;67.85
42847;BME280;28495;49.916;14.536;2023-04-29T22:08:43;97063.00;;;10.28;67.31
42847;BME280;28495;49.916;14.536;2023-04-29T22:14:04;97063.75;;;10.18;67.26
42847;BME280;28495;49.916;14.536;2023-04-29T22:19:25;97071.72;;;10.17;67.87
42847;BME280;28495;49.916;14.536;2023-04-29T22:24:49;97073.69;;;10.25;67.76
42847;BME280;28495;49.916;14.536;2023-04-29T22:30:10;97069.59;;;10.32;67.86
42847;BME280;28495;49.916;14.536;2023-04-29T22:35:31;97073.44;;;10.37;67.89
42847;BME280;28495;49.916;14.536;2023-04-29T22:40:52;97082.13;;;10.38;67.74
42847;BME280;28495;49.916;14.536;2023-04-29T22:46:13;97083.13;;;10.47;67.89
42847;BME280;28495;49.916;14.536;2023-04-29T22:51:33;97078.63;;;10.49;67.80
42847;BME280;28495;49.916;14.536;2023-04-29T22:56:54;97078.00;;;10.35;67.87
42847;BME280;28495;49.916;14.536;2023-04-29T23:02:15;97082.50;;;10.33;67.65
42847;BME280;28495;49.916;14.536;2023-04-29T23:07:36;97089.09;;;10.37;67.94
42847;BME280;28495;49.916;14.536;2023-04-29T23:12:56;97093.13;;;10.42;67.97
42847;BME280;28495;49.916;14.536;2023-04-29T23:18:17;97086.47;;;10.37;67.60
42847;BME280;28495;49.916;14.536;2023-04-29T23:23:38;97098.06;;;10.45;67.66
42847;BME280;28495;49.916;14.536;2023-04-29T23:28:58;97095.88;;;10.40;67.46
42847;BME280;28495;49.916;14.536;2023-04-29T23:34:20;97106.31;;;10.40;67.78
42847;BME280;28495;49.916;14.536;2023-04-29T23:39:41;97100.25;;;10.40;67.48
42847;BME280;28495;49.916;14.536;2023-04-29T23:45:01;97102.13;;;10.37;67.46
42847;BME280;28495;49.916;14.536;2023-04-29T23:50:22;97099.81;;;10.34;67.49
42847;BME280;28495;49.916;14.536;2023-04-29T23:55:43;97106.53;;;10.37;67.56
